sensor_id;sensor_type;location;lat;lon;timestamp;pressure;altitude;pressure_sealevel;temperature;humidity
71105;BME280;58760;48.716;8.962;2023-11-21T00:01:59;95974.19;;;6.86;100.00
71105;BME280;58760;48.716;8.962;2023-11-21T00:04:24;95970.38;;;6.88;100.00
71105;BME280;58760;48.716;8.962;2023-11-21T00:06:50;95976.31;;;6.90;100.00
71105;BME280;58760;48.716;8.962;2023-11-21T00:09:16;95976.66;;;6.95;100.00
71105;BME280;58760;48.716;8.962;2023-11-21T00:11:43;95972.22;;;6.96;100.00
71105;BME280;58760;48.716;8.962;2023-11-21T00:14:09;95975.50;;;6.98;100.00
71105;BME280;58760;48.716;8.962;2023-11-21T00:16:35;95974.53;;;6.99;100.00
71105;BME280;58760;48.716;8.962;2023-11-21T00:19:00;95978.78;;;7.00;100.00
71105;BME280;58760;48.716;8.962;2023-11-21T00:21:26;95970.72;;;7.01;100.00
71105;BME280;58760;48.716;8.962;2023-11-21T00:23:51;95978.31;;;7.04;100.00
71105;BME280;58760;48.716;8.962;2023-11-21T00:26:16;95976.31;;;7.06;100.00
71105;BME280;58760;48.716;8.962;2023-11-21T00:28:42;95968.41;;;7.06;100.00
71105;BME280;58760;48.716;8.962;2023-11-21T00:31:07;95965.63;;;7.08;100.00
71105;BME280;58760;48.716;8.962;2023-11-21T00:33:33;95960.16;;;7.09;100.00
71105;BME280;58760;48.716;8.962;2023-11-21T00:35:58;95973.69;;;7.14;100.00
71105;BME280;58760;48.716;8.962;2023-11-21T00:38:24;95972.03;;;7.13;100.00
71105;BME280;58760;48.716;8.962;2023-11-21T00:40:49;95967.41;;;7.15;100.00
71105;BME280;58760;48.716;8.962;2023-11-21T00:43:15;95971.19;;;7.13;100.00
71105;BME280;58760;48.716;8.962;2023-11-21T00:45:40;95972.53;;;7.17;100.00
71105;BME280;58760;48.716;8.962;2023-11-21T00:48:05;95966.41;;;7.16;100.00
71105;BME280;58760;48.716;8.962;2023-11-21T00:50:31;95962.97;;;7.16;100.00
71105;BME280;58760;48.716;8.962;2023-11-21T00:52:56;95958.50;;;7.16;100.00
71105;BME280;58760;48.716;8.962;2023-11-21T00:55:22;95964.75;;;7.15;100.00
71105;BME280;58760;48.716;8.962;2023-11-21T00:57:48;95967.25;;;7.17;100.00
71105;BME280;58760;48.716;8.962;2023-11-21T01:00:13;95967.91;;;7.19;100.00
71105;BME280;58760;48.716;8.962;2023-11-21T01:02:43;95964.13;;;7.21;100.00
71105;BME280;58760;48.716;8.962;2023-11-21T01:05:09;95969.72;;;7.26;100.00
71105;BME280;58760;48.716;8.962;2023-11-21T01:07:35;95967.25;;;7.25;100.00
71105;BME280;58760;48.716;8.962;2023-11-21T01:10:02;95954.22;;;7.23;100.00
71105;BME280;58760;48.716;8.962;2023-11-21T01:12:28;95960.81;;;7.27;100.00
71105;BME280;58760;48.716;8.962;2023-11-21T01:14:53;95959.50;;;7.23;100.00
71105;BME280;58760;48.716;8.962;2023-11-21T01:17:19;95965.59;;;7.24;100.00
71105;BME280;58760;48.716;8.962;2023-11-21T01:19:44;95955.88;;;7.24;100.00
71105;BME280;58760;48.716;8.962;2023-11-21T01:22:09;95959.50;;;7.23;100.00
71105;BME280;58760;48.716;8.962;2023-11-21T01:24:37;95960.47;;;7.22;100.00
71105;BME280;58760;48.716;8.962;2023-11-21T01:27:02;95956.38;;;7.20;100.00
71105;BME280;58760;48.716;8.962;2023-11-21T01:29:29;95963.13;;;7.30;100.00
71105;BME280;58760;48.716;8.962;2023-11-21T01:31:55;95949.09;;;7.30;100.00
71105;BME280;58760;48.716;8.962;2023-11-21T01:34:22;95963.94;;;7.23;100.00
71105;BME280;58760;48.716;8.962;2023-11-21T01:36:48;95964.09;;;7.29;100.00
71105;BME280;58760;48.716;8.962;2023-11-21T01:39:14;95959.81;;;7.36;100.00
71105;BME280;58760;48.716;8.962;2023-11-21T01:41:44;95952.88;;;7.35;100.00
71105;BME280;58760;48.716;8.962;2023-11-21T01:44:09;95952.22;;;7.33;100.00
71105;BME280;58760;48.716;8.962;2023-11-21T01:46:35;95951.56;;;7.48;100.00
71105;BME280;58760;48.716;8.962;2023-11-21T01:49:00;95955.84;;;7.32;100.00
71105;BME280;58760;48.716;8.962;2023-11-21T01:51:26;95948.94;;;7.23;100.00
71105;BME280;58760;48.716;8.962;2023-11-21T01:53:51;95953.56;;;7.21;100.00
71105;BME280;58760;48.716;8.962;2023-11-21T01:56:17;95947.63;;;7.19;100.00
71105;BME280;58760;48.716;8.962;2023-11-21T01:58:43;95942.69;;;7.16;100.00
71105;BME280;58760;48.716;8.962;2023-11-21T02:01:09;95949.44;;;7.27;100.00
71105;BME280;58760;48.716;8.962;2023-11-21T02:03:35;95948.59;;;7.26;100.00
71105;BME280;58760;48.716;8.962;2023-11-21T02:06:01;95945.00;;;7.27;100.00
71105;BME280;58760;48.716;8.962;2023-11-21T02:08:27;95950.75;;;7.31;100.00
71105;BME280;58760;48.716;8.962;2023-11-21T02:10:52;95947.09;;;7.32;100.00
71105;BME280;58760;48.716;8.962;2023-11-21T02:13:17;95956.00;;;7.39;100.00
71105;BME280;58760;48.716;8.962;2023-11-21T02:15:43;95950.28;;;7.27;100.00
71105;BME280;58760;48.716;8.962;2023-11-21T02:18:08;95946.97;;;7.33;100.00
71105;BME280;58760;48.716;8.962;2023-11-21T02:20:36;95948.13;;;7.31;100.00
71105;BME280;58760;48.716;8.962;2023-11-21T02:23:04;95948.44;;;7.20;100.00
71105;BME280;58760;48.716;8.962;2023-11-21T02:25:31;95944.00;;;7.20;100.00
71105;BME280;58760;48.716;8.962;2023-11-21T02:28:00;95947.63;;;7.27;100.00
71105;BME280;58760;48.716;8.962;2023-11-21T02:30:26;95943.19;;;7.20;100.00
71105;BME280;58760;48.716;8.962;2023-11-21T02:32:53;95947.81;;;7.18;100.00
71105;BME280;58760;48.716;8.962;2023-11-21T02:35:19;95951.56;;;7.15;100.00
71105;BME280;58760;48.716;8.962;2023-11-21T02:37:47;95945.66;;;7.21;100.00
71105;BME280;58760;48.716;8.962;2023-11-21T02:40:12;95942.88;;;7.15;100.00
71105;BME280;58760;48.716;8.962;2023-11-21T02:42:39;95939.22;;;7.16;100.00
71105;BME280;58760;48.716;8.962;2023-11-21T02:45:05;95936.41;;;7.09;100.00
71105;BME280;58760;48.716;8.962;2023-11-21T02:47:30;95935.09;;;7.13;100.00
71105;BME280;58760;48.716;8.962;2023-11-21T02:49:56;95939.22;;;7.08;100.00
71105;BME280;58760;48.716;8.962;2023-11-21T02:52:21;95933.78;;;7.09;100.00
71105;BME280;58760;48.716;8.962;2023-11-21T02:54:47;95925.53;;;6.96;100.00
71105;BME280;58760;48.716;8.962;2023-11-21T02:57:12;95921.44;;;6.94;100.00
71105;BME280;58760;48.716;8.962;2023-11-21T02:59:38;95919.31;;;6.89;100.00
71105;BME280;58760;48.716;8.962;2023-11-21T03:02:04;95929.03;;;6.89;100.00
71105;BME280;58760;48.716;8.962;2023-11-21T03:04:29;95928.53;;;6.85;100.00
71105;BME280;58760;48.716;8.962;2023-11-21T03:06:57;95923.41;;;6.83;100.00
71105;BME280;58760;48.716;8.962;2023-11-21T03:09:23;95930.16;;;6.86;100.00
71105;BME280;58760;48.716;8.962;2023-11-21T03:11:48;95916.66;;;6.97;100.00
71105;BME280;58760;48.716;8.962;2023-11-21T03:14:14;95919.28;;;7.05;100.00
71105;BME280;58760;48.716;8.962;2023-11-21T03:16:39;95917.63;;;7.04;100.00
71105;BME280;58760;48.716;8.962;2023-11-21T03:19:06;95916.31;;;7.00;100.00
71105;BME280;58760;48.716;8.962;2023-11-21T03:21:33;95917.63;;;7.04;100.00
71105;BME280;58760;48.716;8.962;2023-11-21T03:23:59;95918.78;;;6.94;100.00
71105;BME280;58760;48.716;8.962;2023-11-21T03:26:25;95917.97;;;7.01;100.00
71105;BME280;58760;48.716;8.962;2023-11-21T03:28:50;95928.50;;;6.93;100.00
71105;BME280;58760;48.716;8.962;2023-11-21T03:31:18;95931.66;;;7.05;100.00
71105;BME280;58760;48.716;8.962;2023-11-21T03:33:45;95937.59;;;7.15;100.00
71105;BME280;58760;48.716;8.962;2023-11-21T03:36:11;95930.47;;;7.15;100.00
71105;BME280;58760;48.716;8.962;2023-11-21T03:38:36;95925.69;;;7.03;100.00
71105;BME280;58760;48.716;8.962;2023-11-21T03:41:03;95928.50;;;7.17;100.00
71105;BME280;58760;48.716;8.962;2023-11-21T03:43:29;95922.25;;;7.10;100.00
71105;BME280;58760;48.716;8.962;2023-11-21T03:45:54;95933.78;;;7.09;100.00
71105;BME280;58760;48.716;8.962;2023-11-21T03:48:19;95926.19;;;7.06;100.00
71105;BME280;58760;48.716;8.962;2023-11-21T03:50:45;95925.69;;;7.03;100.00
71105;BME280;58760;48.716;8.962;2023-11-21T03:53:12;95929.66;;;7.07;100.00
71105;BME280;58760;48.716;8.962;2023-11-21T03:55:37;95932.78;;;6.86;100.00
71105;BME280;58760;48.716;8.962;2023-11-21T03:58:03;95937.09;;;6.87;100.00
71105;BME280;58760;48.716;8.962;2023-11-21T04:00:28;95940.69;;;6.86;100.00
71105;BME280;58760;48.716;8.962;2023-11-21T04:02:54;95941.38;;;6.88;100.00
71105;BME280;58760;48.716;8.962;2023-11-21T04:05:20;95939.72;;;6.87;100.00
71105;BME280;58760;48.716;8.962;2023-11-21T04:07:49;95943.84;;;6.98;100.00
71105;BME280;58760;48.716;8.962;2023-11-21T04:10:16;95942.19;;;6.97;100.00
71105;BME280;58760;48.716;8.962;2023-11-21T04:12:42;95943.34;;;6.94;100.00
71105;BME280;58760;48.716;8.962;2023-11-21T04:15:07;95950.28;;;6.95;100.00
71105;BME280;58760;48.716;8.962;2023-11-21T04:17:36;95952.91;;;6.87;100.00
71105;BME280;58760;48.716;8.962;2023-11-21T04:20:03;95955.41;;;6.89;100.00
71105;BME280;58760;48.716;8.962;2023-11-21T04:22:33;95949.78;;;6.92;100.00
71105;BME280;58760;48.716;8.962;2023-11-21T04:24:58;95951.25;;;6.94;100.00
71105;BME280;58760;48.716;8.962;2023-11-21T04:27:24;95952.44;;;6.92;100.00
71105;BME280;58760;48.716;8.962;2023-11-21T04:29:49;95953.72;;;6.88;100.00
71105;BME280;58760;48.716;8.962;2023-11-21T04:32:15;95960.50;;;6.90;100.00
71105;BME280;58760;48.716;8.962;2023-11-21T04:34:41;95967.41;;;6.91;100.00
71105;BME280;58760;48.716;8.962;2023-11-21T04:37:06;95969.56;;;7.04;100.00
71105;BME280;58760;48.716;8.962;2023-11-21T04:39:32;95965.94;;;7.05;100.00
71105;BME280;58760;48.716;8.962;2023-11-21T04:41:57;95968.75;;;6.95;100.00
71105;BME280;58760;48.716;8.962;2023-11-21T04:44:22;95964.78;;;6.99;100.00
71105;BME280;58760;48.716;8.962;2023-11-21T04:46:48;95964.94;;;6.90;100.00
71105;BME280;58760;48.716;8.962;2023-11-21T04:49:14;95971.72;;;6.92;100.00
71105;BME280;58760;48.716;8.962;2023-11-21T04:51:39;95969.72;;;6.94;100.00
71105;BME280;58760;48.716;8.962;2023-11-21T04:54:05;95975.97;;;6.93;100.00
71105;BME280;58760;48.716;8.962;2023-11-21T04:56:31;95978.28;;;6.96;100.00
71105;BME280;58760;48.716;8.962;2023-11-21T04:58:56;95976.00;;;7.01;100.00
71105;BME280;58760;48.716;8.962;2023-11-21T05:01:21;95977.16;;;6.99;100.00
71105;BME280;58760;48.716;8.962;2023-11-21T05:03:47;95968.25;;;7.00;100.00
71105;BME280;58760;48.716;8.962;2023-11-21T05:06:13;95972.22;;;6.96;100.00
71105;BME280;58760;48.716;8.962;2023-11-21T05:08:39;95976.16;;;6.92;100.00
71105;BME280;58760;48.716;8.962;2023-11-21T05:11:04;95974.66;;;6.81;100.00
71105;BME280;58760;48.716;8.962;2023-11-21T05:13:34;95973.97;;;6.71;100.00
71105;BME280;58760;48.716;8.962;2023-11-21T05:15:59;95977.13;;;6.66;100.00
71105;BME280;58760;48.716;8.962;2023-11-21T05:18:25;95981.91;;;6.63;100.00
71105;BME280;58760;48.716;8.962;2023-11-21T05:20:55;95975.47;;;6.65;100.00
71105;BME280;58760;48.716;8.962;2023-11-21T05:23:20;95981.38;;;6.59;100.00
71105;BME280;58760;48.716;8.962;2023-11-21T05:25:45;95976.94;;;6.60;100.00
71105;BME280;58760;48.716;8.962;2023-11-21T05:28:12;95987.50;;;6.68;100.00
71105;BME280;58760;48.716;8.962;2023-11-21T05:30:37;95987.16;;;6.63;100.00
71105;BME280;58760;48.716;8.962;2023-11-21T05:33:04;95990.13;;;6.60;100.00
71105;BME280;58760;48.716;8.962;2023-11-21T05:35:30;95994.41;;;6.61;100.00
71105;BME280;58760;48.716;8.962;2023-11-21T05:37:56;95990.13;;;6.68;100.00
71105;BME280;58760;48.716;8.962;2023-11-21T05:40:21;95994.56;;;6.67;100.00
71105;BME280;58760;48.716;8.962;2023-11-21T05:42:47;95995.41;;;6.68;100.00
71105;BME280;58760;48.716;8.962;2023-11-21T05:45:13;95999.66;;;6.61;100.00
71105;BME280;58760;48.716;8.962;2023-11-21T05:47:43;95999.66;;;6.53;100.00
71105;BME280;58760;48.716;8.962;2023-11-21T05:50:12;96002.94;;;6.47;100.00
71105;BME280;58760;48.716;8.962;2023-11-21T05:52:40;95998.00;;;6.44;100.00
71105;BME280;58760;48.716;8.962;2023-11-21T05:55:06;96005.22;;;6.34;100.00
71105;BME280;58760;48.716;8.962;2023-11-21T05:57:36;96004.84;;;6.28;100.00
71105;BME280;58760;48.716;8.962;2023-11-21T06:00:22;96009.09;;;6.21;100.00
71105;BME280;58760;48.716;8.962;2023-11-21T06:02:52;96008.56;;;6.10;100.00
71105;BME280;58760;48.716;8.962;2023-11-21T06:05:19;96023.50;;;6.01;100.00
71105;BME280;58760;48.716;8.962;2023-11-21T06:07:45;96016.91;;;5.97;100.00
71105;BME280;58760;48.716;8.962;2023-11-21T06:10:11;96019.69;;;5.96;100.00
71105;BME280;58760;48.716;8.962;2023-11-21T06:12:38;96025.44;;;5.91;100.00
71105;BME280;58760;48.716;8.962;2023-11-21T06:15:06;96028.38;;;5.88;100.00
71105;BME280;58760;48.716;8.962;2023-11-21T06:17:37;96026.56;;;5.89;100.00
71105;BME280;58760;48.716;8.962;2023-11-21T06:20:03;96034.91;;;5.84;100.00
71105;BME280;58760;48.716;8.962;2023-11-21T06:22:38;96026.72;;;5.87;100.00
71105;BME280;58760;48.716;8.962;2023-11-21T06:25:05;96039.31;;;6.01;100.00
71105;BME280;58760;48.716;8.962;2023-11-21T06:27:32;96039.72;;;6.14;100.00
71105;BME280;58760;48.716;8.962;2023-11-21T06:29:58;96043.97;;;6.15;100.00
71105;BME280;58760;48.716;8.962;2023-11-21T06:32:23;96043.34;;;6.21;100.00
71105;BME280;58760;48.716;8.962;2023-11-21T06:34:49;96046.53;;;5.99;100.00
71105;BME280;58760;48.716;8.962;2023-11-21T06:37:15;96046.72;;;5.80;100.00
71105;BME280;58760;48.716;8.962;2023-11-21T06:39:42;96051.66;;;5.83;100.00
71105;BME280;58760;48.716;8.962;2023-11-21T06:42:07;96055.25;;;5.74;100.00
71105;BME280;58760;48.716;8.962;2023-11-21T06:44:32;96061.75;;;5.62;100.00
71105;BME280;58760;48.716;8.962;2023-11-21T06:46:59;96058.81;;;5.65;100.00
71105;BME280;58760;48.716;8.962;2023-11-21T06:49:24;96057.81;;;5.66;100.00
71105;BME280;58760;48.716;8.962;2023-11-21T06:51:50;96068.59;;;5.55;100.00
71105;BME280;58760;48.716;8.962;2023-11-21T06:54:15;96064.28;;;5.71;100.00
71105;BME280;58760;48.716;8.962;2023-11-21T06:56:40;96082.41;;;6.00;100.00
71105;BME280;58760;48.716;8.962;2023-11-21T06:59:06;96073.47;;;6.19;100.00
71105;BME280;58760;48.716;8.962;2023-11-21T07:01:31;96078.84;;;6.09;100.00
71105;BME280;58760;48.716;8.962;2023-11-21T07:04:04;96075.97;;;6.28;100.00
71105;BME280;58760;48.716;8.962;2023-11-21T07:06:30;96083.94;;;6.45;100.00
71105;BME280;58760;48.716;8.962;2023-11-21T07:08:55;96078.72;;;6.53;100.00
71105;BME280;58760;48.716;8.962;2023-11-21T07:11:21;96084.00;;;6.61;100.00
71105;BME280;58760;48.716;8.962;2023-11-21T07:13:46;96085.69;;;6.70;100.00
71105;BME280;58760;48.716;8.962;2023-11-21T07:16:11;96086.38;;;6.72;100.00
71105;BME280;58760;48.716;8.962;2023-11-21T07:18:37;96096.28;;;6.78;100.00
71105;BME280;58760;48.716;8.962;2023-11-21T07:21:03;96104.84;;;6.80;100.00
71105;BME280;58760;48.716;8.962;2023-11-21T07:23:28;96099.25;;;6.83;100.00
71105;BME280;58760;48.716;8.962;2023-11-21T07:25:54;96109.19;;;6.89;100.00
71105;BME280;58760;48.716;8.962;2023-11-21T07:28:19;96101.59;;;6.94;100.00
71105;BME280;58760;48.716;8.962;2023-11-21T07:30:44;96102.25;;;6.96;100.00
71105;BME280;58760;48.716;8.962;2023-11-21T07:33:10;96100.94;;;7.00;100.00
71105;BME280;58760;48.716;8.962;2023-11-21T07:35:36;96110.69;;;7.08;100.00
71105;BME280;58760;48.716;8.962;2023-11-21T07:38:01;96109.41;;;7.12;100.00
71105;BME280;58760;48.716;8.962;2023-11-21T07:40:26;96109.56;;;7.18;100.00
71105;BME280;58760;48.716;8.962;2023-11-21T07:42:52;96104.91;;;7.04;100.00
71105;BME280;58760;48.716;8.962;2023-11-21T07:45:18;96114.47;;;6.97;100.00
71105;BME280;58760;48.716;8.962;2023-11-21T07:47:43;96116.66;;;7.18;100.00
71105;BME280;58760;48.716;8.962;2023-11-21T07:50:09;96108.41;;;7.29;100.00
71105;BME280;58760;48.716;8.962;2023-11-21T07:52:34;96106.97;;;7.34;100.00
71105;BME280;58760;48.716;8.962;2023-11-21T07:55:00;96108.28;;;7.47;100.00
71105;BME280;58760;48.716;8.962;2023-11-21T07:57:25;96113.88;;;7.44;100.00
71105;BME280;58760;48.716;8.962;2023-11-21T07:59:51;96117.50;;;7.43;100.00
71105;BME280;58760;48.716;8.962;2023-11-21T08:02:18;96111.25;;;7.52;100.00
71105;BME280;58760;48.716;8.962;2023-11-21T08:04:44;96109.78;;;7.57;100.00
71105;BME280;58760;48.716;8.962;2023-11-21T08:07:09;96103.34;;;7.76;100.00
71105;BME280;58760;48.716;8.962;2023-11-21T08:09:36;96105.63;;;7.87;100.00
71105;BME280;58760;48.716;8.962;2023-11-21T08:12:01;96111.22;;;8.00;100.00
71105;BME280;58760;48.716;8.962;2023-11-21T08:14:28;96109.06;;;8.12;100.00
71105;BME280;58760;48.716;8.962;2023-11-21T08:16:53;96107.06;;;8.14;100.00
71105;BME280;58760;48.716;8.962;2023-11-21T08:19:23;96107.41;;;8.11;100.00
71105;BME280;58760;48.716;8.962;2023-11-21T08:21:50;96103.59;;;8.21;100.00
71105;BME280;58760;48.716;8.962;2023-11-21T08:24:16;96104.91;;;8.25;100.00
71105;BME280;58760;48.716;8.962;2023-11-21T08:26:42;96103.25;;;8.24;100.00
71105;BME280;58760;48.716;8.962;2023-11-21T08:29:08;96100.59;;;8.40;100.00
71105;BME280;58760;48.716;8.962;2023-11-21T08:31:33;96099.28;;;8.45;100.00
71105;BME280;58760;48.716;8.962;2023-11-21T08:33:59;96108.38;;;8.42;100.00
71105;BME280;58760;48.716;8.962;2023-11-21T08:36:27;96103.41;;;8.39;100.00
71105;BME280;58760;48.716;8.962;2023-11-21T08:38:53;96103.59;;;8.29;100.00
71105;BME280;58760;48.716;8.962;2023-11-21T08:41:18;96106.25;;;8.29;100.00
71105;BME280;58760;48.716;8.962;2023-11-21T08:43:48;96111.63;;;8.52;100.00
71105;BME280;58760;48.716;8.962;2023-11-21T08:46:14;96108.13;;;8.60;100.00
71105;BME280;58760;48.716;8.962;2023-11-21T08:48:40;96109.44;;;8.64;100.00
71105;BME280;58760;48.716;8.962;2023-11-21T08:51:06;96103.97;;;8.65;100.00
71105;BME280;58760;48.716;8.962;2023-11-21T08:53:31;96115.88;;;8.69;100.00
71105;BME280;58760;48.716;8.962;2023-11-21T08:55:58;96114.75;;;8.64;100.00
71105;BME280;58760;48.716;8.962;2023-11-21T08:58:23;96111.63;;;8.52;100.00
71105;BME280;58760;48.716;8.962;2023-11-21T09:00:49;96113.81;;;8.40;100.00
71105;BME280;58760;48.716;8.962;2023-11-21T09:03:14;96125.38;;;8.23;100.00
71105;BME280;58760;48.716;8.962;2023-11-21T09:05:40;96121.75;;;8.24;100.00
71105;BME280;58760;48.716;8.962;2023-11-21T09:08:05;96124.59;;;8.15;100.00
71105;BME280;58760;48.716;8.962;2023-11-21T09:10:33;96131.03;;;8.12;100.00
71105;BME280;58760;48.716;8.962;2023-11-21T09:13:01;96134.19;;;8.16;100.00
71105;BME280;58760;48.716;8.962;2023-11-21T09:15:27;96141.63;;;8.12;100.00
71105;BME280;58760;48.716;8.962;2023-11-21T09:17:53;96147.34;;;8.24;100.00
71105;BME280;58760;48.716;8.962;2023-11-21T09:20:18;96147.22;;;8.17;100.00
71105;BME280;58760;48.716;8.962;2023-11-21T09:22:48;96143.88;;;8.23;100.00
71105;BME280;58760;48.716;8.962;2023-11-21T09:25:13;96156.13;;;8.08;100.00
71105;BME280;58760;48.716;8.962;2023-11-21T09:27:39;96155.97;;;8.10;100.00
71105;BME280;58760;48.716;8.962;2023-11-21T09:30:05;96156.78;;;8.18;100.00
71105;BME280;58760;48.716;8.962;2023-11-21T09:32:33;96159.94;;;8.14;100.00
71105;BME280;58760;48.716;8.962;2023-11-21T09:35:00;96155.47;;;8.14;100.00
71105;BME280;58760;48.716;8.962;2023-11-21T09:37:27;96162.41;;;8.07;100.00
71105;BME280;58760;48.716;8.962;2023-11-21T09:39:52;96170.34;;;8.07;100.00
71105;BME280;58760;48.716;8.962;2023-11-21T09:42:32;96176.44;;;8.08;100.00
71105;BME280;58760;48.716;8.962;2023-11-21T09:45:15;96184.53;;;7.90;100.00
71105;BME280;58760;48.716;8.962;2023-11-21T09:47:43;96174.97;;;7.73;100.00
71105;BME280;58760;48.716;8.962;2023-11-21T09:50:09;96173.97;;;7.74;100.00
71105;BME280;58760;48.716;8.962;2023-11-21T09:53:07;96165.41;;;7.80;100.00
71105;BME280;58760;48.716;8.962;2023-11-21T09:55:30;96174.28;;;7.55;100.00
71105;BME280;58760;48.716;8.962;2023-11-21T09:58:02;96175.59;;;7.51;100.00
71105;BME280;58760;48.716;8.962;2023-11-21T10:00:29;96177.06;;;7.45;100.00
71105;BME280;58760;48.716;8.962;2023-11-21T10:02:57;96175.25;;;7.46;100.00
71105;BME280;58760;48.716;8.962;2023-11-21T10:05:23;96173.00;;;7.67;100.00
71105;BME280;58760;48.716;8.962;2023-11-21T10:07:50;96179.56;;;7.71;100.00
71105;BME280;58760;48.716;8.962;2023-11-21T10:10:18;96175.13;;;7.71;100.00
71105;BME280;58760;48.716;8.962;2023-11-21T10:12:49;96181.75;;;7.83;100.00
71105;BME280;58760;48.716;8.962;2023-11-21T10:15:18;96178.28;;;7.83;100.00
71105;BME280;58760;48.716;8.962;2023-11-21T10:17:48;96176.94;;;7.79;100.00
71105;BME280;58760;48.716;8.962;2023-11-21T10:20:14;96180.75;;;7.60;100.00
71105;BME280;58760;48.716;8.962;2023-11-21T10:22:41;96187.66;;;7.69;100.00
71105;BME280;58760;48.716;8.962;2023-11-21T10:25:08;96183.88;;;7.64;100.00
71105;BME280;58760;48.716;8.962;2023-11-21T10:27:35;96181.75;;;7.92;100.00
71105;BME280;58760;48.716;8.962;2023-11-21T10:30:02;96184.69;;;7.97;100.00
71105;BME280;58760;48.716;8.962;2023-11-21T10:32:29;96180.91;;;7.91;100.00
71105;BME280;58760;48.716;8.962;2023-11-21T10:35:01;96193.78;;;7.86;100.00
71105;BME280;58760;48.716;8.962;2023-11-21T10:37:32;96189.47;;;7.69;100.00
71105;BME280;58760;48.716;8.962;2023-11-21T10:39:58;96189.19;;;7.80;100.00
71105;BME280;58760;48.716;8.962;2023-11-21T10:42:24;96195.94;;;7.99;100.00
71105;BME280;58760;48.716;8.962;2023-11-21T10:44:49;96184.56;;;8.30;100.00
71105;BME280;58760;48.716;8.962;2023-11-21T10:47:16;96195.59;;;8.26;100.00
71105;BME280;58760;48.716;8.962;2023-11-21T10:49:44;96197.25;;;8.27;100.00
71105;BME280;58760;48.716;8.962;2023-11-21T10:52:13;96196.44;;;8.34;100.00
71105;BME280;58760;48.716;8.962;2023-11-21T10:54:45;96198.91;;;8.36;100.00
71105;BME280;58760;48.716;8.962;2023-11-21T10:57:13;96200.25;;;8.32;100.00
71105;BME280;58760;48.716;8.962;2023-11-21T10:59:41;96203.22;;;8.37;100.00
71105;BME280;58760;48.716;8.962;2023-11-21T11:02:21;96204.88;;;8.38;100.00
71105;BME280;58760;48.716;8.962;2023-11-21T11:04:48;96200.41;;;8.38;100.00
71105;BME280;58760;48.716;8.962;2023-11-21T11:07:14;96199.41;;;8.48;100.00
71105;BME280;58760;48.716;8.962;2023-11-21T11:09:41;96202.69;;;8.58;100.00
71105;BME280;58760;48.716;8.962;2023-11-21T11:12:08;96195.09;;;8.55;100.00
71105;BME280;58760;48.716;8.962;2023-11-21T11:14:35;96196.41;;;8.59;100.00
71105;BME280;58760;48.716;8.962;2023-11-21T11:17:01;96197.72;;;8.63;100.00
71105;BME280;58760;48.716;8.962;2023-11-21T11:19:27;96197.91;;;8.61;100.00
71105;BME280;58760;48.716;8.962;2023-11-21T11:22:04;96200.88;;;8.58;100.00
71105;BME280;58760;48.716;8.962;2023-11-21T11:24:48;96195.75;;;8.65;100.00
71105;BME280;58760;48.716;8.962;2023-11-21T11:27:44;96199.66;;;8.77;100.00
71105;BME280;58760;48.716;8.962;2023-11-21T11:33:36;96189.47;;;9.05;100.00
71105;BME280;58760;48.716;8.962;2023-11-21T11:38:46;96188.63;;;9.12;100.00
71105;BME280;58760;48.716;8.962;2023-11-21T11:41:27;96189.47;;;9.05;100.00
71105;BME280;58760;48.716;8.962;2023-11-21T11:43:54;96191.97;;;9.06;100.00
71105;BME280;58760;48.716;8.962;2023-11-21T11:46:20;96195.44;;;9.07;100.00
71105;BME280;58760;48.716;8.962;2023-11-21T11:48:49;96193.78;;;9.06;100.00
71105;BME280;58760;48.716;8.962;2023-11-21T11:51:28;96194.94;;;9.03;100.00
71105;BME280;58760;48.716;8.962;2023-11-21T11:53:53;96197.56;;;9.11;100.00
71105;BME280;58760;48.716;8.962;2023-11-21T11:58:56;96190.63;;;9.10;100.00
71105;BME280;58760;48.716;8.962;2023-11-21T12:01:23;96193.63;;;8.99;100.00
71105;BME280;58760;48.716;8.962;2023-11-21T12:06:43;96204.41;;;8.89;100.00
71105;BME280;58760;48.716;8.962;2023-11-21T12:09:19;96199.00;;;8.83;100.00
71105;BME280;58760;48.716;8.962;2023-11-21T12:11:47;96202.81;;;8.80;100.00
71105;BME280;58760;48.716;8.962;2023-11-21T12:14:13;96203.09;;;8.85;100.00
71105;BME280;58760;48.716;8.962;2023-11-21T12:16:39;96212.53;;;8.88;100.00
71105;BME280;58760;48.716;8.962;2023-11-21T12:19:05;96200.59;;;9.00;100.00
71105;BME280;58760;48.716;8.962;2023-11-21T12:21:30;96209.28;;;9.17;100.00
71105;BME280;58760;48.716;8.962;2023-11-21T12:23:57;96202.16;;;9.17;100.00
71105;BME280;58760;48.716;8.962;2023-11-21T12:26:24;96205.81;;;9.16;100.00
71105;BME280;58760;48.716;8.962;2023-11-21T12:28:55;96205.81;;;9.16;100.00
71105;BME280;58760;48.716;8.962;2023-11-21T12:31:23;96210.03;;;9.33;100.00
71105;BME280;58760;48.716;8.962;2023-11-21T12:33:49;96201.84;;;9.43;100.00
71105;BME280;58760;48.716;8.962;2023-11-21T12:36:15;96204.63;;;9.50;100.00
71105;BME280;58760;48.716;8.962;2023-11-21T12:38:41;96207.41;;;9.56;100.00
71105;BME280;58760;48.716;8.962;2023-11-21T12:41:07;96201.88;;;9.66;100.00
71105;BME280;58760;48.716;8.962;2023-11-21T12:43:33;96206.41;;;9.65;100.00
71105;BME280;58760;48.716;8.962;2023-11-21T12:46:10;96201.06;;;9.42;100.00
71105;BME280;58760;48.716;8.962;2023-11-21T12:48:38;96206.09;;;9.29;100.00
71105;BME280;58760;48.716;8.962;2023-11-21T12:51:06;96209.44;;;9.23;100.00
71105;BME280;58760;48.716;8.962;2023-11-21T12:53:32;96216.00;;;9.27;100.00
71105;BME280;58760;48.716;8.962;2023-11-21T12:56:05;96216.19;;;9.26;100.00
71105;BME280;58760;48.716;8.962;2023-11-21T12:58:31;96221.00;;;9.22;100.00
71105;BME280;58760;48.716;8.962;2023-11-21T13:00:59;96225.13;;;9.25;100.00
71105;BME280;58760;48.716;8.962;2023-11-21T13:03:25;96220.53;;;9.19;100.00
71105;BME280;58760;48.716;8.962;2023-11-21T13:05:51;96214.72;;;9.23;100.00
71105;BME280;58760;48.716;8.962;2023-11-21T13:08:20;96223.88;;;9.43;100.00
71105;BME280;58760;48.716;8.962;2023-11-21T13:10:52;96226.00;;;9.48;100.00